地図

経路データ

SID SEASON NUMBER BASIN SUBBASIN NAME ISO_TIME NATURE LAT LON WMO_WIND WMO_PRES WMO_AGENCY TRACK_TYPE DIST2LAND LANDFALL IFLAG USA_AGENCY USA_ATCF_ID USA_LAT USA_LON USA_RECORD USA_STATUS USA_WIND USA_PRES USA_SSHS USA_R34_NE USA_R34_SE USA_R34_SW USA_R34_NW USA_R50_NE USA_R50_SE USA_R50_SW USA_R50_NW USA_R64_NE USA_R64_SE USA_R64_SW USA_R64_NW USA_POCI USA_ROCI USA_RMW USA_EYE TOKYO_LAT TOKYO_LON TOKYO_GRADE TOKYO_WIND TOKYO_PRES TOKYO_R50_DIR TOKYO_R50_LONG TOKYO_R50_SHORT TOKYO_R30_DIR TOKYO_R30_LONG TOKYO_R30_SHORT TOKYO_LAND CMA_LAT CMA_LON CMA_CAT CMA_WIND CMA_PRES HKO_LAT HKO_LON HKO_CAT HKO_WIND HKO_PRES NEWDELHI_LAT NEWDELHI_LON NEWDELHI_GRADE NEWDELHI_WIND NEWDELHI_PRES NEWDELHI_CI NEWDELHI_DP NEWDELHI_POCI REUNION_LAT REUNION_LON REUNION_TYPE REUNION_WIND REUNION_PRES REUNION_TNUM REUNION_CI REUNION_RMW REUNION_R34_NE REUNION_R34_SE REUNION_R34_SW REUNION_R34_NW REUNION_R50_NE REUNION_R50_SE REUNION_R50_SW REUNION_R50_NW REUNION_R64_NE REUNION_R64_SE REUNION_R64_SW REUNION_R64_NW BOM_LAT BOM_LON BOM_TYPE BOM_WIND BOM_PRES BOM_TNUM BOM_CI BOM_RMW BOM_R34_NE BOM_R34_SE BOM_R34_SW BOM_R34_NW BOM_R50_NE BOM_R50_SE BOM_R50_SW BOM_R50_NW BOM_R64_NE BOM_R64_SE BOM_R64_SW BOM_R64_NW BOM_ROCI BOM_POCI BOM_EYE BOM_POS_METHOD BOM_PRES_METHOD NADI_LAT NADI_LON NADI_CAT NADI_WIND NADI_PRES WELLINGTON_LAT WELLINGTON_LON WELLINGTON_WIND WELLINGTON_PRES DS824_LAT DS824_LON DS824_STAGE DS824_WIND DS824_PRES TD9636_LAT TD9636_LON TD9636_STAGE TD9636_WIND TD9636_PRES TD9635_LAT TD9635_LON TD9635_WIND TD9635_PRES TD9635_ROCI NEUMANN_LAT NEUMANN_LON NEUMANN_CLASS NEUMANN_WIND NEUMANN_PRES MLC_LAT MLC_LON MLC_CLASS MLC_WIND MLC_PRES USA_GUST BOM_GUST BOM_GUST_PER REUNION_GUST REUNION_GUST_PER USA_SEAHGT USA_SEARAD_NE USA_SEARAD_SE USA_SEARAD_SW USA_SEARAD_NW STORM_SPEED STORM_DIR
1924217N24142 1924 25 WP MM NOT_NAMED 1924-08-03 22:00:00 NR 24.2000 142.200 main 1200 1175 __________O___ -1 24.2000 142.200 7 7 342
1924217N24142 1924 25 WP MM NOT_NAMED 1924-08-04 00:00:00 NR 24.4228 142.131 main 1175 1132 __________P___ -1 24.4228 142.131 7 7 344
1924217N24142 1924 25 WP MM NOT_NAMED 1924-08-04 03:00:00 NR 24.7609 142.028 main 1132 1098 __________P___ -1 24.7609 142.028 7 7 345
1924217N24142 1924 25 WP MM NOT_NAMED 1924-08-04 06:00:00 NR 25.1092 141.927 main 1098 1054 __________P___ -1 25.1092 141.927 7 7 346
1924217N24142 1924 25 WP MM NOT_NAMED 1924-08-04 09:00:00 NR 25.4738 141.831 main 1054 1044 __________P___ -1 25.4738 141.831 7 8 347
1924217N24142 1924 25 WP MM NOT_NAMED 1924-08-04 10:00:00 NR 25.6000 141.800 main 1044 1009 __________O___ -1 25.6000 141.800 7 8 349
1924217N24142 1924 25 WP MM NOT_NAMED 1924-08-04 12:00:00 NR 25.8600 141.739 main 1009 964 __________P___ -1 25.8600 141.739 7 8 347
1924217N24142 1924 25 WP MM NOT_NAMED 1924-08-04 15:00:00 NR 26.2627 141.630 main 964 918 __________P___ -1 26.2627 141.630 7 9 343
1924217N24142 1924 25 WP MM NOT_NAMED 1924-08-04 18:00:00 NR 26.6702 141.466 main 918 867 __________P___ -1 26.6702 141.466 7 9 335
1924217N24142 1924 25 WP MM NOT_NAMED 1924-08-04 21:00:00 NR 27.0704 141.212 main 867 854 __________P___ -1 27.0704 141.212 7 9 328
1924217N24142 1924 25 WP MM NOT_NAMED 1924-08-04 22:00:00 NR 27.2000 141.100 main 854 813 __________O___ -1 27.2000 141.100 7 10 318
1924217N24142 1924 25 WP MM NOT_NAMED 1924-08-05 00:00:00 NR 27.4504 140.825 main 813 758 __________P___ -1 27.4504 140.825 7 11 311
1924217N24142 1924 25 WP MM NOT_NAMED 1924-08-05 03:00:00 NR 27.8133 140.317 main 758 689 __________P___ -1 27.8133 140.317 7 12 306
1924217N24142 1924 25 WP MM NOT_NAMED 1924-08-05 06:00:00 NR 28.1606 139.731 main 689 630 __________P___ -1 28.1606 139.731 7 13 303
1924217N24142 1924 25 WP MM NOT_NAMED 1924-08-05 09:00:00 NR 28.4926 139.108 main 630 611 __________P___ -1 28.4926 139.108 7 13 301
1924217N24142 1924 25 WP MM NOT_NAMED 1924-08-05 10:00:00 NR 28.6000 138.900 main 611 573 __________O___ -1 28.6000 138.900 7 13 300
1924217N24142 1924 25 WP MM NOT_NAMED 1924-08-05 12:00:00 NR 28.8103 138.489 main 573 519 __________P___ -1 28.8103 138.489 7 12 300
1924217N24142 1924 25 WP MM NOT_NAMED 1924-08-05 15:00:00 NR 29.1162 137.884 main 519 468 __________P___ -1 29.1162 137.884 7 12 300
1924217N24142 1924 25 WP MM NOT_NAMED 1924-08-05 18:00:00 NR 29.4132 137.288 main 468 421 __________P___ -1 29.4132 137.288 7 12 300
1924217N24142 1924 25 WP MM NOT_NAMED 1924-08-05 21:00:00 NR 29.7040 136.697 main 421 406 __________P___ -1 29.7040 136.697 7 12 299
1924217N24142 1924 25 WP MM NOT_NAMED 1924-08-05 22:00:00 NR 29.8000 136.500 main 406 __________O___ -1 29.8000 136.500 7 12 299

デジタル台風データ・検索

IBTrACS Databaseについて

本データベースは、米国NOAAが公開する1842年以降の世界の熱帯低気圧のベストトラックデータアーカイブInternational Best Track Archive for Climate Stewardship (IBTrACS)を、ウェブで閲覧しやすい形式に変換したものです。

最終更新日:2021-12-03